Kanab, Utah
Current Conditions -  °F | °C
As of 3:55 PM on Saturday 20 Dec 2014 (Local Time) from KAZC Reporting Station
Overcast Overcast  
Wind Chill: 45°   Ceiling: 9000
Heat Index: 48°   Visibility: 10mi
Dew Point: 33°   Wind: 6mph
Humidity: 55%   Direction: 300°WNW
Pressure: 30.14"   Gusts: NA
Location:  37.05°N, 112.53°W
Report Text: KAZC 202255Z AUTO 30005KT 10SM SCT075 OVC090 09/00 A3014 RMK AO2 T00890004
Loading
Personal Weather Stations






























Interactive Weather Map New forecast layout! Learn more

10-Day Weather Forecast

Advertisements
Track Severe Weather on mobile